Time;durP1;ratioP1;P1;durP2;ratioP2;P2;SDS_P1;SDS_P2;PMS_P1;PMS_P2;Temp;Humidity;BMP_temperature;BMP_pressure;BME280_temperature;BME280_humidity;BME280_pressure;Samples;Min_cycle;Max_cycle;Signal;HPM_P1;HPM_P2
2023/02/21 02:14:47;;;;;;;1.80;1.07;;;;;;;8.28;100.00;100235.28;5010120;28;20043;-84
2023/02/21 02:17:41;;;;;;;1.53;1.20;;;;;;;8.28;100.00;100233.53;4993296;28;20065;-82
2023/02/21 02:20:30;;;;;;;1.70;1.00;;;;;;;8.25;100.00;100233.59;4993738;28;20041;-83
2023/02/21 02:23:08;;;;;;;1.77;1.00;;;;;;;8.24;100.00;100230.97;4994648;28;20495;-82
2023/02/21 02:25:50;;;;;;;1.93;1.00;;;;;;;8.21;100.00;100237.16;5009933;28;20046;-84
2023/02/21 02:28:19;;;;;;;1.10;1.00;;;;;;;8.16;100.00;100237.25;4996693;28;20041;-83
2023/02/21 02:31:07;;;;;;;2.53;1.00;;;;;;;8.24;100.00;100234.50;5013019;28;20038;-82
2023/02/21 02:33:59;;;;;;;2.10;1.27;;;;;;;8.23;100.00;100222.19;4992155;28;20049;-82
2023/02/21 02:36:31;;;;;;;1.10;1.00;;;;;;;8.21;100.00;100234.53;5025090;28;20038;-83
2023/02/21 02:39:17;;;;;;;0.87;0.60;;;;;;;8.23;100.00;100237.13;4980887;28;20045;-83
2023/02/21 02:41:52;;;;;;;0.33;0.30;;;;;;;8.18;100.00;100239.84;4980689;28;20058;-83
2023/02/21 02:44:38;;;;;;;1.43;0.60;;;;;;;8.23;100.00;100243.25;4997126;28;20045;-82
2023/02/21 02:47:07;;;;;;;0.70;0.53;;;;;;;8.23;100.00;100238.00;5013780;28;20104;-83
2023/02/21 02:49:37;;;;;;;1.17;0.30;;;;;;;8.20;100.00;100251.22;5008818;28;20038;-85
2023/02/21 02:52:06;;;;;;;0.53;0.50;;;;;;;8.16;100.00;100236.41;4981046;28;20054;-86
2023/02/21 02:54:33;;;;;;;0.50;0.40;;;;;;;8.13;100.00;100245.19;4995433;28;20064;-83
2023/02/21 02:57:02;;;;;;;1.00;0.50;;;;;;;8.13;100.00;100247.81;4995923;28;20038;-87
2023/02/21 02:59:32;;;;;;;0.40;0.37;;;;;;;8.04;100.00;100255.88;4995378;28;20487;-86
2023/02/21 03:02:25;;;;;;;1.47;0.40;;;;;;;7.98;100.00;100248.06;4991847;28;20069;-87
2023/02/21 03:05:25;;;;;;;0.33;0.30;;;;;;;8.06;100.00;100250.56;4984675;28;20042;-87
2023/02/21 03:08:04;;;;;;;0.43;0.40;;;;;;;8.02;100.00;100256.78;4983076;28;20042;-87
2023/02/21 03:10:47;;;;;;;0.70;0.43;;;;;;;7.94;100.00;100263.94;4985538;28;20046;-86
2023/02/21 03:13:23;;;;;;;0.60;0.40;;;;;;;7.95;100.00;100263.03;5017214;28;20042;-84
2023/02/21 03:15:57;;;;;;;2.28;0.60;;;;;;;7.85;100.00;100265.81;4994101;28;20537;-84
2023/02/21 03:18:28;;;;;;;0.40;0.30;;;;;;;7.71;100.00;100259.91;4978786;28;20045;-83
2023/02/21 03:20:57;;;;;;;0.30;0.30;;;;;;;7.89;100.00;100274.53;4977984;28;20042;-83
2023/02/21 03:23:27;;;;;;;0.57;0.50;;;;;;;7.92;100.00;100273.63;4994598;28;20442;-83
2023/02/21 03:25:56;;;;;;;0.77;0.20;;;;;;;7.89;100.00;100267.50;4965527;28;20065;-83
2023/02/21 03:28:23;;;;;;;0.80;0.37;;;;;;;7.86;100.00;100270.19;5007858;28;20046;-84
2023/02/21 03:30:52;;;;;;;0.93;0.30;;;;;;;7.88;100.00;100283.31;4990800;28;20084;-84
2023/02/21 03:33:19;;;;;;;0.33;0.33;;;;;;;7.89;100.00;100280.66;5007356;28;20045;-83
2023/02/21 03:35:45;;;;;;;0.80;0.37;;;;;;;7.87;100.00;100281.56;4962147;28;20455;-84
2023/02/21 03:38:12;;;;;;;0.27;0.27;;;;;;;7.86;100.00;100293.84;4978602;28;20049;-84
2023/02/21 03:40:38;;;;;;;0.83;0.40;;;;;;;7.86;100.00;100301.75;4991287;28;20101;-83
2023/02/21 03:43:06;;;;;;;0.30;0.20;;;;;;;7.84;100.00;100300.91;4990579;28;20034;-83
2023/02/21 03:45:33;;;;;;;0.23;0.23;;;;;;;7.78;100.00;100302.75;5010924;28;20034;-83
2023/02/21 03:48:00;;;;;;;1.80;0.40;;;;;;;7.80;100.00;100306.22;5007090;28;20133;-83
2023/02/21 03:50:27;;;;;;;0.37;0.30;;;;;;;7.78;100.00;100292.25;5010456;28;20042;-83
2023/02/21 03:52:54;;;;;;;0.30;0.30;;;;;;;7.79;100.00;100302.72;4978117;28;20049;-83
2023/02/21 03:55:21;;;;;;;0.53;0.30;;;;;;;7.75;100.00;100300.19;4994051;28;20052;-83
2023/02/21 03:57:48;;;;;;;1.20;0.30;;;;;;;7.82;100.00;100305.34;4975223;28;20197;-82
2023/02/21 04:00:14;;;;;;;0.73;0.40;;;;;;;7.76;100.00;100297.53;4993223;28;20041;-83
2023/02/21 04:02:42;;;;;;;0.30;0.30;;;;;;;7.75;100.00;100294.91;4992331;28;20042;-84
2023/02/21 04:05:08;;;;;;;0.30;0.30;;;;;;;7.57;100.00;100298.69;4993910;28;20061;-83
2023/02/21 04:07:35;;;;;;;0.20;0.20;;;;;;;7.60;100.00;100312.66;5010644;28;20495;-83
2023/02/21 04:10:02;;;;;;;0.30;0.30;;;;;;;7.50;100.00;100311.03;4979843;28;20049;-86
2023/02/21 04:12:28;;;;;;;1.00;0.40;;;;;;;7.63;100.00;100316.97;4992989;28;20515;-85
2023/02/21 04:14:57;;;;;;;0.30;0.30;;;;;;;7.58;100.00;100313.56;4987716;28;20041;-86
2023/02/21 04:17:24;;;;;;;0.33;0.30;;;;;;;7.60;100.00;100322.28;4996633;28;20046;-86
2023/02/21 04:19:50;;;;;;;0.40;0.40;;;;;;;7.63;100.00;100323.09;4992362;28;20177;-84
2023/02/21 04:22:17;;;;;;;0.40;0.40;;;;;;;7.62;100.00;100328.41;5011914;28;20045;-85
2023/02/21 04:24:44;;;;;;;0.70;0.30;;;;;;;7.55;100.00;100321.47;4980282;28;20046;-85
2023/02/21 04:27:10;;;;;;;0.40;0.30;;;;;;;7.47;100.00;100323.34;4976710;28;20048;-86
2023/02/21 04:29:37;;;;;;;1.03;0.40;;;;;;;7.46;100.00;100318.97;4995301;28;20145;-86
2023/02/21 04:32:04;;;;;;;0.40;0.40;;;;;;;7.48;100.00;100315.47;5007273;28;20041;-86
2023/02/21 04:34:31;;;;;;;1.03;0.20;;;;;;;7.45;100.00;100319.88;4995405;28;20049;-85
2023/02/21 04:36:57;;;;;;;0.43;0.30;;;;;;;7.36;100.00;100309.47;4996107;28;20038;-85
2023/02/21 04:39:24;;;;;;;0.50;0.40;;;;;;;7.51;100.00;100310.16;4982043;28;20100;-84
2023/02/21 04:41:50;;;;;;;0.40;0.40;;;;;;;7.45;100.00;100306.72;4997228;28;20037;-83
2023/02/21 04:44:17;;;;;;;0.30;0.30;;;;;;;7.43;100.00;100309.38;4982219;28;20041;-85
2023/02/21 04:46:44;;;;;;;0.47;0.30;;;;;;;7.51;100.00;100314.53;4980581;28;20096;-85
2023/02/21 04:49:11;;;;;;;0.10;0.10;;;;;;;7.43;100.00;100303.25;4998669;28;20100;-84
2023/02/21 04:51:38;;;;;;;0.20;0.20;;;;;;;7.43;100.00;100317.25;4995869;28;20045;-84
2023/02/21 04:54:06;;;;;;;0.20;0.20;;;;;;;7.36;100.00;100320.00;4993891;28;20038;-85
2023/02/21 04:56:33;;;;;;;0.73;0.53;;;;;;;7.31;100.00;100323.56;4986860;28;20045;-86
2023/02/21 04:59:00;;;;;;;0.90;0.40;;;;;;;7.26;100.00;100312.22;4994174;28;20523;-85
2023/02/21 05:01:27;;;;;;;0.70;0.43;;;;;;;7.31;100.00;100314.78;4995337;28;20091;-85
2023/02/21 05:03:54;;;;;;;0.30;0.30;;;;;;;7.33;100.00;100320.91;4976080;28;20057;-85
2023/02/21 05:06:23;;;;;;;0.77;0.40;;;;;;;7.33;100.00;100315.66;4979503;28;20038;-85
2023/02/21 05:08:50;;;;;;;0.50;0.30;;;;;;;7.21;100.00;100321.03;5009800;28;20482;-85
2023/02/21 05:11:17;;;;;;;0.30;0.30;;;;;;;7.14;100.00;100324.63;4988839;28;20046;-85
2023/02/21 05:13:44;;;;;;;0.30;0.23;;;;;;;7.24;100.00;100323.66;5013276;28;20096;-85
2023/02/21 05:16:11;;;;;;;0.50;0.30;;;;;;;7.21;100.00;100335.03;4995161;28;20088;-86
2023/02/21 05:18:41;;;;;;;0.50;0.37;;;;;;;7.21;100.00;100324.53;5006374;28;20040;-85
2023/02/21 05:21:07;;;;;;;0.90;0.60;;;;;;;7.26;100.00;100328.00;5016597;28;20108;-85
2023/02/21 05:23:35;;;;;;;0.90;0.70;;;;;;;7.09;100.00;100324.69;5009777;28;20038;-83
2023/02/21 05:26:05;;;;;;;1.13;0.60;;;;;;;7.06;100.00;100327.34;4987443;28;20108;-83
2023/02/21 05:28:31;;;;;;;0.90;0.60;;;;;;;7.09;100.00;100326.47;5011392;28;20033;-85
2023/02/21 05:30:58;;;;;;;0.90;0.43;;;;;;;7.06;100.00;100327.34;4978691;28;20049;-85
2023/02/21 05:33:26;;;;;;;0.73;0.50;;;;;;;7.19;100.00;100334.19;4996362;28;20050;-85
2023/02/21 05:35:53;;;;;;;1.80;0.90;;;;;;;7.22;100.00;100331.53;4979672;28;20064;-84
2023/02/21 05:38:22;;;;;;;2.00;0.50;;;;;;;7.19;100.00;100338.59;4981630;28;20041;-84
2023/02/21 05:40:49;;;;;;;1.20;0.47;;;;;;;7.09;100.00;100337.84;4998118;28;20053;-84
2023/02/21 05:43:15;;;;;;;0.50;0.50;;;;;;;7.15;100.00;100334.28;4982123;28;20060;-84
2023/02/21 05:45:42;;;;;;;0.53;0.50;;;;;;;7.08;100.00;100330.84;4993340;28;20499;-86
2023/02/21 05:48:09;;;;;;;0.67;0.63;;;;;;;7.17;100.00;100338.63;4983454;28;20038;-85
2023/02/21 05:50:38;;;;;;;1.07;0.70;;;;;;;7.13;100.00;100339.53;4966050;28;20073;-84
2023/02/21 05:53:05;;;;;;;2.23;0.90;;;;;;;7.10;100.00;100347.44;4990400;28;20189;-85
2023/02/21 05:55:32;;;;;;;2.30;0.60;;;;;;;7.12;100.00;100340.41;4979773;28;20046;-83
2023/02/21 05:57:58;;;;;;;3.23;0.80;;;;;;;7.04;100.00;100350.13;4994286;28;20049;-85
2023/02/21 06:00:27;;;;;;;2.47;0.90;;;;;;;7.09;100.00;100347.47;4978375;28;20042;-84
2023/02/21 06:02:54;;;;;;;1.07;0.73;;;;;;;7.01;100.00;100364.19;4980465;28;20072;-82
2023/02/21 06:05:22;;;;;;;2.87;0.80;;;;;;;7.15;100.00;100361.41;4995759;28;20483;-83
2023/02/21 06:07:52;;;;;;;5.33;0.90;;;;;;;7.05;100.00;100354.50;4973487;28;20134;-83
2023/02/21 06:10:19;;;;;;;2.60;1.27;;;;;;;7.02;100.00;100370.31;4994933;28;20045;-82
2023/02/21 06:12:46;;;;;;;2.50;0.87;;;;;;;7.04;100.00;100376.41;4978829;28;20038;-83
2023/02/21 06:15:16;;;;;;;1.60;0.80;;;;;;;6.95;100.00;100387.00;4980499;28;20069;-82
2023/02/21 06:17:43;;;;;;;1.63;0.83;;;;;;;6.86;100.00;100394.97;4974405;28;20133;-82
2023/02/21 06:20:12;;;;;;;3.83;0.90;;;;;;;6.88;100.00;100409.81;5008000;28;20046;-82
2023/02/21 06:22:38;;;;;;;3.20;1.10;;;;;;;6.85;100.00;100393.25;4976745;28;20120;-83
2023/02/21 06:25:06;;;;;;;1.83;0.70;;;;;;;6.80;100.00;100398.53;4995480;28;20049;-82
2023/02/21 06:27:32;;;;;;;1.27;0.80;;;;;;;6.83;100.00;100401.13;4977130;28;20491;-83
2023/02/21 06:29:59;;;;;;;2.17;1.20;;;;;;;6.80;100.00;100401.13;4995236;28;20141;-82
2023/02/21 06:32:26;;;;;;;3.53;0.90;;;;;;;6.86;100.00;100390.59;4989004;28;20044;-83
2023/02/21 06:34:53;;;;;;;2.50;1.30;;;;;;;6.80;100.00;100387.16;4976990;28;20045;-84
2023/02/21 06:37:20;;;;;;;4.23;1.10;;;;;;;6.87;100.00;100394.09;5012587;28;20037;-87
2023/02/21 06:39:47;;;;;;;2.33;1.20;;;;;;;6.71;100.00;100394.22;4976914;28;20049;-85
2023/02/21 06:42:15;;;;;;;3.80;1.00;;;;;;;6.76;100.00;100402.06;5008828;28;20116;-87
2023/02/21 06:44:46;;;;;;;2.70;1.10;;;;;;;6.70;100.00;100394.25;4979891;28;20042;-87
2023/02/21 06:47:13;;;;;;;2.20;1.10;;;;;;;6.70;100.00;100407.38;4993301;28;20062;-87
2023/02/21 06:49:40;;;;;;;4.23;1.00;;;;;;;6.70;100.00;100413.50;4983380;28;20066;-86
2023/02/21 06:52:07;;;;;;;2.50;1.10;;;;;;;6.81;100.00;100416.03;5007351;28;20056;-86
2023/02/21 06:54:34;;;;;;;3.83;1.90;;;;;;;6.80;100.00;100413.41;4996030;28;20041;-86
2023/02/21 06:57:00;;;;;;;5.83;1.27;;;;;;;6.71;100.00;100415.22;4979606;28;20046;-87
2023/02/21 06:59:28;;;;;;;3.67;1.20;;;;;;;6.77;100.00;100411.69;4980568;28;20066;-86
2023/02/21 07:01:55;;;;;;;3.37;1.17;;;;;;;6.75;100.00;100409.09;5000973;28;20084;-85
2023/02/21 07:04:23;;;;;;;3.80;1.53;;;;;;;6.78;100.00;100421.31;5066847;23;20041;-82
2023/02/21 07:06:50;;;;;;;5.03;1.60;;;;;;;6.78;100.00;100416.91;4999634;28;20100;-81
2023/02/21 07:09:16;;;;;;;8.20;1.60;;;;;;;6.74;100.00;100428.34;4976560;28;20053;-83
2023/02/21 07:11:45;;;;;;;3.80;1.20;;;;;;;6.76;100.00;100450.19;4978345;28;20042;-82
2023/02/21 07:14:12;;;;;;;5.23;1.10;;;;;;;6.78;100.00;100458.94;5014229;28;20046;-82
2023/02/21 07:16:39;;;;;;;3.53;1.10;;;;;;;6.80;100.00;100448.41;4982026;28;20046;-81
2023/02/21 07:19:06;;;;;;;10.27;1.57;;;;;;;6.76;100.00;100458.06;5010435;28;20033;-82
2023/02/21 07:21:32;;;;;;;2.90;1.20;;;;;;;6.88;100.00;100449.22;4989077;28;20054;-83
2023/02/21 07:23:59;;;;;;;4.83;1.27;;;;;;;6.85;100.00;100459.75;5007876;28;20050;-83
2023/02/21 07:26:25;;;;;;;5.90;2.37;;;;;;;6.84;100.00;100455.38;4995612;28;20042;-80
2023/02/21 07:28:52;;;;;;;5.47;1.27;;;;;;;6.88;100.00;100459.72;4978505;28;20400;-82
2023/02/21 07:31:19;;;;;;;6.77;1.50;;;;;;;6.88;100.00;100461.47;5009705;28;20053;-81
2023/02/21 07:33:46;;;;;;;7.77;2.00;;;;;;;6.80;100.00;100458.03;4990074;28;20042;-82
2023/02/21 07:36:13;;;;;;;6.93;1.63;;;;;;;6.78;100.00;100460.69;4975855;28;20046;-81
2023/02/21 07:38:39;;;;;;;6.00;1.80;;;;;;;6.75;100.00;100464.22;5001156;28;21693;-81
2023/02/21 07:41:06;;;;;;;7.77;2.30;;;;;;;6.78;100.00;100458.94;4998569;28;20498;-82
2023/02/21 07:43:33;;;;;;;9.00;2.20;;;;;;;6.82;100.00;100465.03;4980269;28;20046;-82
2023/02/21 07:45:59;;;;;;;5.53;1.63;;;;;;;6.90;100.00;100464.97;4995007;28;20095;-82
2023/02/21 07:48:26;;;;;;;4.47;1.80;;;;;;;6.93;100.00;100478.06;4979668;28;20038;-82
2023/02/21 07:50:53;;;;;;;6.73;1.63;;;;;;;6.89;100.00;100471.97;4999714;28;20056;-82
2023/02/21 07:53:19;;;;;;;8.20;1.87;;;;;;;6.85;100.00;100493.03;4997205;28;20055;-81
2023/02/21 07:55:46;;;;;;;7.80;2.23;;;;;;;6.88;100.00;100495.59;4994628;28;20038;-80
2023/02/21 07:58:13;;;;;;;10.67;2.53;;;;;;;6.88;100.00;100492.97;4978315;28;20088;-82
2023/02/21 08:00:39;;;;;;;7.40;3.30;;;;;;;6.83;100.00;100506.16;4995883;28;20069;-81
2023/02/21 08:03:06;;;;;;;7.23;2.40;;;;;;;6.88;100.00;100514.88;5016084;28;20052;-81
2023/02/21 08:05:33;;;;;;;6.67;2.20;;;;;;;6.92;100.00;100505.22;4994257;28;20522;-80
2023/02/21 08:07:59;;;;;;;8.33;2.93;;;;;;;6.86;100.00;100519.25;4990917;28;20088;-81
2023/02/21 08:10:27;;;;;;;12.37;2.80;;;;;;;6.88;100.00;100524.50;4967557;28;20042;-81
2023/02/21 08:12:53;;;;;;;7.20;2.03;;;;;;;6.97;100.00;100533.16;5001449;28;20045;-80
2023/02/21 08:15:21;;;;;;;5.40;2.43;;;;;;;6.99;100.00;100520.06;4978141;28;20513;-81
2023/02/21 08:17:48;;;;;;;10.27;3.27;;;;;;;7.04;100.00;100534.00;4999038;28;20482;-81
2023/02/21 08:20:16;;;;;;;7.93;3.10;;;;;;;7.00;100.00;100538.41;5016119;28;20145;-81
2023/02/21 08:22:43;;;;;;;10.90;2.50;;;;;;;7.13;100.00;100541.81;5030877;28;20048;-82
2023/02/21 08:25:10;;;;;;;13.97;2.90;;;;;;;7.08;100.00;100546.25;5011687;28;20046;-83
2023/02/21 08:27:39;;;;;;;22.83;3.40;;;;;;;7.15;100.00;100549.69;4995770;28;20152;-80
2023/02/21 08:30:08;;;;;;;6.67;2.03;;;;;;;7.17;100.00;100547.91;5011395;28;20053;-81
2023/02/21 08:32:34;;;;;;;14.20;4.00;;;;;;;7.30;100.00;100547.78;4979198;28;20038;-81
2023/02/21 08:35:02;;;;;;;13.93;3.23;;;;;;;7.32;100.00;100540.78;4995857;28;20042;-83
2023/02/21 08:37:32;;;;;;;11.70;3.17;;;;;;;7.35;100.00;100550.38;5009574;28;20050;-82
2023/02/21 08:39:59;;;;;;;7.67;3.13;;;;;;;7.40;100.00;100569.63;4997805;28;20046;-83
2023/02/21 08:42:25;;;;;;;13.07;3.73;;;;;;;7.44;100.00;100571.31;5003476;28;20096;-83
2023/02/21 08:44:52;;;;;;;12.30;2.83;;;;;;;7.42;100.00;100564.34;5008226;28;20061;-83
2023/02/21 08:47:19;;;;;;;9.33;3.07;;;;;;;7.43;100.00;100577.47;4985771;28;20407;-81
2023/02/21 08:49:46;;;;;;;11.10;3.00;;;;;;;7.45;100.00;100585.34;5006983;28;20045;-81
2023/02/21 08:52:15;;;;;;;13.63;4.63;;;;;;;7.54;100.00;100590.50;4980992;28;20053;-81
2023/02/21 08:54:43;;;;;;;9.07;2.67;;;;;;;7.60;100.00;100599.22;5009682;28;20045;-81
2023/02/21 08:57:09;;;;;;;15.03;3.63;;;;;;;7.43;100.00;100579.22;4978214;28;20398;-82
2023/02/21 08:59:41;;;;;;;11.33;3.80;;;;;;;7.47;100.00;100583.56;4978030;28;20045;-80
2023/02/21 09:02:17;;;;;;;14.53;3.27;;;;;;;7.58;100.00;100579.09;4994333;28;20042;-81
2023/02/21 09:04:44;;;;;;;11.17;3.00;;;;;;;7.49;100.00;100592.31;4991291;28;20093;-81
2023/02/21 09:07:12;;;;;;;15.57;4.20;;;;;;;7.47;100.00;100601.97;4984846;28;20069;-80
2023/02/21 09:09:39;;;;;;;8.90;3.17;;;;;;;7.45;100.00;100594.09;5034645;28;20084;-82
2023/02/21 09:12:09;;;;;;;15.50;3.10;;;;;;;7.45;100.00;100601.09;5002085;28;20077;-82
2023/02/21 09:14:37;;;;;;;11.33;3.37;;;;;;;7.45;100.00;100598.47;4992823;28;20042;-81
2023/02/21 09:17:05;;;;;;;136.93;88.03;;;;;;;7.50;100.00;100615.09;4974435;28;20525;-82
2023/02/21 09:19:32;;;;;;;58.93;36.67;;;;;;;7.50;100.00;100594.94;4992986;28;20057;-82
2023/02/21 09:21:59;;;;;;;18.13;4.53;;;;;;;7.47;98.70;100613.34;5013009;28;20490;-83
2023/02/21 09:24:27;;;;;;;12.43;7.27;;;;;;;7.49;98.20;100613.34;5011186;28;20050;-81
2023/02/21 09:26:57;;;;;;;17.43;7.23;;;;;;;7.57;99.27;100608.91;4989552;28;20039;-82
2023/02/21 09:29:25;;;;;;;10.93;3.37;;;;;;;7.70;100.00;100604.38;4981612;28;20042;-81
2023/02/21 09:32:00;;;;;;;13.63;3.80;;;;;;;7.67;96.61;100605.28;4982566;28;20565;-82
2023/02/21 09:34:27;;;;;;;15.37;3.47;;;;;;;7.74;96.76;100611.38;5004356;28;20042;-82
2023/02/21 09:36:54;;;;;;;15.83;4.43;;;;;;;7.83;98.74;100606.88;4999809;28;20038;-80
2023/02/21 09:39:21;;;;;;;14.77;4.20;;;;;;;7.75;96.93;100608.72;4983334;28;20487;-83
2023/02/21 09:41:49;;;;;;;14.93;5.00;;;;;;;7.75;93.70;100607.84;5000043;28;20103;-83
2023/02/21 09:44:19;;;;;;;17.10;3.97;;;;;;;7.61;93.30;100627.25;4999493;28;20408;-80
2023/02/21 09:46:53;;;;;;;11.00;3.50;;;;;;;7.69;92.96;100621.91;4999835;28;20041;-81
2023/02/21 09:49:24;;;;;;;13.88;4.00;;;;;;;8.00;95.36;100616.38;5016654;28;20100;-81
2023/02/21 09:51:51;;;;;;;15.20;4.57;;;;;;;7.92;92.85;100618.22;4999387;28;20470;-84
2023/02/21 09:54:33;;;;;;;9.60;3.00;;;;;;;8.10;92.40;100626.78;4999171;28;20050;-82
2023/02/21 09:57:03;;;;;;;15.33;3.40;;;;;;;8.21;92.53;100624.00;4984236;28;20054;-82
2023/02/21 09:59:30;;;;;;;14.73;3.77;;;;;;;8.27;89.33;100637.09;4999427;28;20073;-81
2023/02/21 10:02:14;;;;;;;17.27;4.53;;;;;;;8.28;89.05;100632.72;5000179;28;20455;-82
2023/02/21 10:04:59;;;;;;;17.03;4.30;;;;;;;8.14;92.03;100643.38;4999927;28;20498;-82
2023/02/21 10:07:30;;;;;;;21.85;3.95;;;;;;;8.28;94.12;100625.69;4998949;28;20132;-82
2023/02/21 10:10:06;;;;;;;14.53;4.83;;;;;;;8.30;88.96;100642.31;4999648;28;20069;-82
2023/02/21 10:12:35;;;;;;;11.83;4.07;;;;;;;8.30;84.01;100617.75;4998579;28;20443;-81
2023/02/21 10:15:01;;;;;;;14.00;4.53;;;;;;;8.35;85.30;100627.41;4985236;28;20416;-83
2023/02/21 10:17:38;;;;;;;13.10;3.63;;;;;;;8.45;85.08;100625.53;4996505;28;20053;-80
2023/02/21 10:20:12;;;;;;;15.50;4.70;;;;;;;8.51;90.05;100643.88;4995343;28;20042;-82
2023/02/21 10:22:41;;;;;;;11.75;3.55;;;;;;;8.53;89.40;100642.09;4995828;28;20126;-82
2023/02/21 10:25:19;;;;;;;11.30;4.17;;;;;;;8.54;87.60;100649.09;4994155;28;20558;-81
2023/02/21 10:27:46;;;;;;;14.07;3.50;;;;;;;8.57;85.47;100650.81;4994227;28;20057;-82
2023/02/21 10:30:41;;;;;;;12.93;4.27;;;;;;;8.55;87.91;100653.47;4995061;28;20043;-81
2023/02/21 10:33:08;;;;;;;11.07;3.13;;;;;;;8.45;88.59;100646.56;4980120;28;20058;-81
2023/02/21 10:35:36;;;;;;;16.03;4.17;;;;;;;8.45;88.20;100641.31;4983065;28;20097;-80
2023/02/21 10:38:14;;;;;;;16.00;3.50;;;;;;;8.50;87.89;100651.81;4998457;28;20038;-82
2023/02/21 10:40:46;;;;;;;10.47;3.50;;;;;;;8.27;87.29;100642.38;4979989;28;20549;-80
2023/02/21 10:43:20;;;;;;;11.90;4.10;;;;;;;8.49;89.09;100645.63;4998027;28;20043;-82
2023/02/21 10:45:53;;;;;;;8.80;3.30;;;;;;;8.37;87.52;100643.16;5011900;28;20041;-81
2023/02/21 10:48:24;;;;;;;10.10;2.73;;;;;;;8.49;88.93;100648.28;5031721;28;20046;-81
2023/02/21 10:51:04;;;;;;;10.75;3.13;;;;;;;8.54;86.85;100658.75;4998954;28;20052;-82
2023/02/21 10:53:34;;;;;;;13.43;3.20;;;;;;;8.78;89.37;100655.81;5031684;28;20046;-80
2023/02/21 10:56:19;;;;;;;10.13;2.97;;;;;;;8.82;82.38;100644.34;4982124;28;20042;-83
2023/02/21 10:58:55;;;;;;;15.40;3.67;;;;;;;9.00;87.87;100653.78;5014478;28;20030;-82
2023/02/21 11:01:24;;;;;;;11.40;3.35;;;;;;;9.02;86.89;100663.41;5014375;28;20399;-80
2023/02/21 11:04:25;;;;;;;12.25;4.07;;;;;;;9.03;85.89;100651.97;4995142;28;20550;-81
2023/02/21 11:07:07;;;;;;;11.63;3.05;;;;;;;8.91;83.50;100652.13;4978917;28;20073;-80
2023/02/21 11:09:41;;;;;;;13.73;3.75;;;;;;;9.05;83.37;100653.69;4978878;28;20108;-81
2023/02/21 11:12:14;;;;;;;10.55;3.45;;;;;;;9.29;82.87;100646.28;4976075;28;20054;-80
2023/02/21 11:15:05;;;;;;;14.18;3.65;;;;;;;9.48;78.05;100649.50;5066585;23;20040;-79
2023/02/21 11:17:32;;;;;;;13.38;3.50;;;;;;;9.64;74.81;100646.63;5005941;28;20061;-81
2023/02/21 11:20:19;;;;;;;11.95;3.05;;;;;;;9.33;72.03;100652.38;4980149;28;20049;-80
2023/02/21 11:22:47;;;;;;;16.92;5.22;;;;;;;9.50;77.93;100647.75;5028123;28;20045;-81
2023/02/21 11:25:27;;;;;;;11.82;3.88;;;;;;;9.44;75.78;100650.47;5012124;28;20088;-81
2023/02/21 11:28:13;;;;;;;16.88;4.60;;;;;;;9.70;78.22;100649.16;5011405;28;20070;-80
2023/02/21 11:30:48;;;;;;;8.88;3.45;;;;;;;9.58;76.01;100642.31;4995598;28;20049;-81
2023/02/21 11:33:20;;;;;;;13.32;4.20;;;;;;;9.49;77.14;100647.72;5011926;28;20637;-81
2023/02/21 11:35:49;;;;;;;12.65;3.30;;;;;;;9.39;77.07;100659.34;4991985;28;20785;-80
2023/02/21 11:38:36;;;;;;;11.30;3.65;;;;;;;9.51;80.26;100660.03;4976212;28;20042;-81
2023/02/21 11:41:22;;;;;;;13.63;3.28;;;;;;;9.50;77.79;100658.28;4991297;28;20048;-83
2023/02/21 11:43:50;;;;;;;14.68;4.32;;;;;;;9.44;79.39;100658.38;4976052;28;20066;-81
2023/02/21 11:46:26;;;;;;;8.30;3.20;;;;;;;9.36;78.81;100664.66;4959349;28;20046;-81
2023/02/21 11:49:31;;;;;;;11.23;3.45;;;;;;;9.20;78.07;100656.13;4997972;28;20035;-80
2023/02/21 11:52:08;;;;;;;15.18;3.72;;;;;;;9.14;78.92;100667.59;4982553;28;20038;-79
2023/02/21 11:54:36;;;;;;;12.23;3.47;;;;;;;9.18;81.87;100652.63;4997746;28;20096;-80
2023/02/21 11:57:05;;;;;;;11.80;4.88;;;;;;;9.20;78.98;100664.03;4998103;28;20153;-80
2023/02/21 11:59:45;;;;;;;14.82;3.88;;;;;;;9.31;79.14;100664.72;5016564;28;20037;-79
2023/02/21 12:02:41;;;;;;;12.65;3.58;;;;;;;9.07;78.13;100665.94;5016820;28;20107;-80
2023/02/21 12:05:21;;;;;;;17.10;4.40;;;;;;;9.21;75.57;100666.63;5016896;28;20034;-79
2023/02/21 12:08:07;;;;;;;14.88;3.67;;;;;;;9.35;77.89;100669.06;4999210;28;20056;-79
2023/02/21 12:11:18;;;;;;;13.68;5.10;;;;;;;9.28;79.65;100655.09;5017060;28;20050;-80
2023/02/21 12:14:09;;;;;;;14.93;3.55;;;;;;;9.20;75.82;100661.38;5015312;28;20049;-79
2023/02/21 12:17:13;;;;;;;15.68;4.07;;;;;;;9.11;78.27;100658.88;4998950;28;20042;-79
2023/02/21 12:20:05;;;;;;;12.57;3.42;;;;;;;9.02;75.38;100665.16;5016180;28;20081;-78
2023/02/21 12:22:47;;;;;;;16.45;4.28;;;;;;;9.09;75.69;100663.31;5011312;28;20076;-81
2023/02/21 12:25:32;;;;;;;11.95;3.55;;;;;;;9.15;73.66;100658.81;5004484;28;20218;-82
2023/02/21 12:28:31;;;;;;;18.58;4.38;;;;;;;9.01;72.15;100656.38;5003758;28;20068;-82
2023/02/21 12:31:16;;;;;;;10.50;3.50;;;;;;;9.18;72.39;100658.78;4913939;28;20055;-82
2023/02/21 12:33:51;;;;;;;14.02;5.63;;;;;;;9.48;71.12;100657.41;5010871;28;20474;-82
2023/02/21 12:36:44;;;;;;;14.73;3.47;;;;;;;9.24;67.82;100649.88;4992591;28;20061;-82
2023/02/21 12:39:22;;;;;;;7.47;3.08;;;;;;;9.33;68.37;100652.38;4988834;28;20443;-82
2023/02/21 12:42:16;;;;;;;13.95;3.47;;;;;;;9.57;68.57;100656.41;5004844;28;20596;-82
2023/02/21 12:44:46;;;;;;;10.85;3.08;;;;;;;9.76;70.13;100649.94;5008915;28;20042;-83
2023/02/21 12:47:31;;;;;;;12.30;3.30;;;;;;;9.53;66.77;100665.28;5001987;28;20479;-82
2023/02/21 12:50:14;;;;;;;12.30;4.22;;;;;;;9.63;68.05;100666.84;5009752;28;20034;-82
2023/02/21 12:53:01;;;;;;;13.73;3.88;;;;;;;9.50;68.40;100671.47;5028718;28;20579;-83
2023/02/21 12:55:35;;;;;;;19.10;6.82;;;;;;;9.38;67.19;100668.13;5003883;28;20045;-83
2023/02/21 12:58:25;;;;;;;11.38;3.70;;;;;;;9.34;69.68;100672.59;5001528;28;20556;-81
2023/02/21 13:00:59;;;;;;;14.85;6.28;;;;;;;9.32;70.80;100669.09;4997361;28;20105;-83
2023/02/21 13:03:35;;;;;;;;;;;;;;;9.14;71.23;100677.28;4990262;28;20037;-82
2023/02/21 13:06:08;;;;;;;13.70;5.18;;;;;;;9.06;70.11;100663.34;5013660;22;19921;-80
2023/02/21 13:08:57;;;;;;;12.60;4.55;;;;;;;9.17;73.66;100669.34;5035997;28;20059;-80
2023/02/21 13:11:44;;;;;;;14.02;4.07;;;;;;;9.15;74.16;100669.34;5062854;28;20109;-81
2023/02/21 13:14:15;;;;;;;18.75;4.68;;;;;;;9.09;73.50;100671.22;5032063;28;20041;-81
2023/02/21 13:16:42;;;;;;;10.90;3.63;;;;;;;9.00;74.45;100677.50;5026520;28;20515;-80
2023/02/21 13:19:11;;;;;;;15.02;3.90;;;;;;;8.85;78.33;100669.78;5025415;28;20041;-81
2023/02/21 13:21:59;;;;;;;11.13;3.22;;;;;;;8.82;78.66;100668.03;5032313;28;20090;-81
2023/02/21 13:24:37;;;;;;;12.15;3.75;;;;;;;8.86;76.94;100675.03;5044076;28;20040;-81
2023/02/21 13:27:13;;;;;;;11.98;3.75;;;;;;;8.92;76.69;100677.59;5036465;28;20040;-81
2023/02/21 13:29:40;;;;;;;15.73;4.55;;;;;;;9.03;76.87;100669.53;5024941;28;20044;-80
2023/02/21 13:32:08;;;;;;;16.60;3.60;;;;;;;9.09;74.22;100661.56;5051497;28;20033;-81
2023/02/21 13:34:37;;;;;;;12.63;3.78;;;;;;;8.95;73.38;100656.47;5023910;28;20069;-81
2023/02/21 13:37:08;;;;;;;12.82;5.38;;;;;;;9.09;71.68;100664.19;5018297;28;20490;-81
2023/02/21 13:39:38;;;;;;;14.20;5.28;;;;;;;9.24;74.54;100657.78;5031715;28;20084;-81
2023/02/21 13:42:10;;;;;;;15.02;4.10;;;;;;;9.31;73.34;100660.31;5023008;28;20047;-81
2023/02/21 13:44:41;;;;;;;14.73;4.18;;;;;;;9.29;71.38;100655.97;5052266;28;20045;-81
2023/02/21 13:47:19;;;;;;;14.13;4.03;;;;;;;9.34;73.10;100664.69;5063069;28;20045;-80
2023/02/21 13:49:56;;;;;;;11.73;4.10;;;;;;;9.52;72.38;100659.13;5014160;28;20129;-81
2023/02/21 13:52:27;;;;;;;13.07;4.00;;;;;;;9.51;67.98;100657.38;5018624;28;20044;-82
2023/02/21 13:55:20;;;;;;;7.70;3.25;;;;;;;9.55;68.09;100658.19;5043744;28;20044;-81
2023/02/21 13:58:11;;;;;;;10.98;3.65;;;;;;;9.62;68.43;100654.56;5042544;28;20528;-81
2023/02/21 14:00:37;;;;;;;11.73;3.88;;;;;;;9.67;69.12;100651.84;5021177;28;20099;-81